Time,TemperatureF,DewpointF,PressureIn,WindDirection,WindDirectionDegrees,WindSpeedMPH,WindSpeedGustMPH,Humidity,HourlyPrecipIn,Conditions,Clouds,dailyrainin,SolarRadiationWatts/m^2,SoftwareType,DateUTC
2012-10-02 00:00:00,78.6,75.1,29.81,SSW,208,3.0,5.0,89,0.00,,---,0.00,0.00,VWS V14.01,2012-10-02 04:00:00,
2012-10-02 00:01:00,78.6,75.1,29.80,SSW,208,7.0,7.0,89,0.00,,---,0.00,0.00,VWS V14.01,2012-10-02 04:01:00,
2012-10-02 00:06:00,78.7,75.2,29.81,SSW,198,0.0,7.0,89,0.00,,---,0.00,0.00,VWS V14.01,2012-10-02 04:06:00,
2012-10-02 00:11:00,78.8,75.3,29.80,South,178,2.0,5.0,89,0.00,,---,0.00,0.00,VWS V14.01,2012-10-02 04:11:00,
2012-10-02 00:16:00,78.8,75.3,29.81,South,173,4.0,5.0,89,0.00,,---,0.00,0.00,VWS V14.01,2012-10-02 04:16:00,
2012-10-02 00:22:00,78.9,75.4,29.81,South,175,3.0,6.0,89,0.00,,---,0.00,0.00,VWS V14.01,2012-10-02 04:22:00,
2012-10-02 00:27:00,78.9,75.4,29.81,South,188,2.0,6.0,89,0.00,,---,0.00,0.00,VWS V14.01,2012-10-02 04:27:00,
2012-10-02 00:32:00,79.0,75.5,29.81,SSW,198,4.0,6.0,89,0.00,,---,0.00,0.00,VWS V14.01,2012-10-02 04:32:00,
2012-10-02 00:37:00,78.9,75.4,29.81,SSW,203,3.0,6.0,89,0.00,,---,0.00,0.00,VWS V14.01,2012-10-02 04:37:00,
2012-10-02 00:42:00,78.9,75.4,29.80,SSW,192,3.0,6.0,89,0.00,,---,0.00,0.00,VWS V14.01,2012-10-02 04:42:00,
2012-10-02 00:47:00,78.8,75.3,29.81,South,171,3.0,6.0,89,0.00,,---,0.00,0.00,VWS V14.01,2012-10-02 04:47:00,
2012-10-02 00:52:00,78.7,75.2,29.81,SSW,212,2.0,6.0,89,0.00,,---,0.00,0.00,VWS V14.01,2012-10-02 04:52:00,
2012-10-02 00:57:00,78.6,75.1,29.81,SW,214,6.0,7.0,89,0.00,,---,0.00,0.00,VWS V14.01,2012-10-02 04:57:00,
2012-10-02 01:00:00,78.7,75.2,29.81,SW,217,2.0,7.0,89,0.00,,---,0.00,0.00,VWS V14.01,2012-10-02 05:00:00,
2012-10-02 01:02:00,78.6,75.1,29.81,South,187,4.0,7.0,89,0.00,,---,0.00,0.00,VWS V14.01,2012-10-02 05:02:00,
2012-10-02 01:07:00,78.5,75.0,29.81,SSW,208,3.0,7.0,89,0.00,,---,0.00,0.00,VWS V14.01,2012-10-02 05:07:00,
2012-10-02 01:12:00,78.4,74.9,29.81,SSE,151,6.0,7.0,89,0.00,,---,0.00,0.00,VWS V14.01,2012-10-02 05:12:00,
2012-10-02 01:17:00,78.3,74.8,29.81,South,185,5.0,7.0,89,0.00,,---,0.00,0.00,VWS V14.01,2012-10-02 05:17:00,
2012-10-02 01:22:00,78.2,75.0,29.81,South,183,1.0,7.0,90,0.00,,---,0.00,0.00,VWS V14.01,2012-10-02 05:22:00,
2012-10-02 01:27:00,78.1,74.9,29.81,SSW,193,2.0,7.0,90,0.00,,---,0.00,0.00,VWS V14.01,2012-10-02 05:27:00,
2012-10-02 01:32:00,78.0,74.8,29.81,SSW,192,1.0,7.0,90,0.00,,---,0.00,0.00,VWS V14.01,2012-10-02 05:32:00,
2012-10-02 01:37:00,77.9,74.7,29.80,South,177,1.0,7.0,90,0.00,,---,0.00,0.00,VWS V14.01,2012-10-02 05:37:00,
2012-10-02 01:42:00,77.8,74.6,29.80,SSW,212,3.0,7.0,90,0.00,,---,0.00,0.00,VWS V14.01,2012-10-02 05:42:00,
2012-10-02 01:47:00,77.7,74.5,29.81,South,181,4.0,7.0,90,0.00,,---,0.00,0.00,VWS V14.01,2012-10-02 05:47:00,
2012-10-02 01:52:00,77.7,74.5,29.81,SSW,208,4.0,7.0,90,0.00,,---,0.00,0.00,VWS V14.01,2012-10-02 05:52:00,
2012-10-02 01:57:00,77.6,74.4,29.81,SSW,208,4.0,7.0,90,0.00,,---,0.00,0.00,VWS V14.01,2012-10-02 05:57:00,
2012-10-02 02:00:00,78.5,75.0,29.81,South,187,2.0,7.0,89,0.00,,---,0.00,0.00,VWS V14.01,2012-10-02 06:00:00,
2012-10-02 02:02:00,77.5,74.3,29.81,SW,216,5.0,10.0,90,0.00,,---,0.00,0.00,VWS V14.01,2012-10-02 06:02:00,
2012-10-02 02:07:00,77.5,74.3,29.80,South,183,3.0,10.0,90,0.00,,---,0.00,0.00,VWS V14.01,2012-10-02 06:07:00,
2012-10-02 02:12:00,77.4,74.2,29.80,South,172,4.0,5.0,90,0.00,,---,0.00,0.00,VWS V14.01,2012-10-02 06:12:00,
2012-10-02 02:17:00,77.3,74.1,29.80,South,175,9.0,9.0,90,0.00,,---,0.00,0.00,VWS V14.01,2012-10-02 06:17:00,
2012-10-02 02:22:00,77.3,74.1,29.80,South,191,6.0,10.0,90,0.00,,---,0.00,0.00,VWS V14.01,2012-10-02 06:22:00,
2012-10-02 02:27:00,77.3,74.1,29.80,South,177,1.0,10.0,90,0.00,,---,0.00,0.00,VWS V14.01,2012-10-02 06:27:00,
2012-10-02 02:32:00,77.2,74.0,29.80,SSE,149,3.0,10.0,90,0.00,,---,0.00,0.00,VWS V14.01,2012-10-02 06:32:00,
2012-10-02 02:37:00,77.1,73.9,29.80,SSE,151,3.0,10.0,90,0.00,,---,0.00,0.00,VWS V14.01,2012-10-02 06:37:00,
2012-10-02 02:42:00,77.1,73.9,29.80,SSW,198,4.0,10.0,90,0.00,,---,0.00,0.00,VWS V14.01,2012-10-02 06:42:00,
2012-10-02 02:47:00,77.1,73.9,29.80,SSE,168,5.0,10.0,90,0.00,,---,0.00,0.00,VWS V14.01,2012-10-02 06:47:00,
2012-10-02 02:52:00,77.1,73.9,29.80,South,190,4.0,10.0,90,0.00,,---,0.00,0.00,VWS V14.01,2012-10-02 06:52:00,
2012-10-02 02:57:00,77.1,74.3,29.80,SSE,162,3.0,10.0,91,0.00,,---,0.00,0.00,VWS V14.01,2012-10-02 06:57:00,
2012-10-02 03:00:00,77.5,74.3,29.80,SSW,208,3.0,10.0,90,0.00,,---,0.00,0.00,VWS V14.01,2012-10-02 07:00:00,
2012-10-02 03:03:00,77.1,74.3,29.80,South,176,2.0,10.0,91,0.00,,---,0.00,0.00,VWS V14.01,2012-10-02 07:03:00,
2012-10-02 03:08:00,77.1,74.3,29.80,SSW,208,4.0,10.0,91,0.00,,---,0.00,0.00,VWS V14.01,2012-10-02 07:08:00,
2012-10-02 03:13:00,77.1,74.3,29.80,South,179,3.0,8.0,91,0.00,,---,0.00,0.00,VWS V14.01,2012-10-02 07:13:00,
2012-10-02 03:18:00,77.1,74.3,29.80,SSW,203,3.0,8.0,91,0.00,,---,0.00,0.00,VWS V14.01,2012-10-02 07:18:00,
2012-10-02 03:23:00,77.1,74.3,29.80,South,174,3.0,8.0,91,0.00,,---,0.00,0.00,VWS V14.01,2012-10-02 07:23:00,
2012-10-02 03:28:00,77.1,74.3,29.80,South,183,3.0,8.0,91,0.00,,---,0.00,0.00,VWS V14.01,2012-10-02 07:28:00,
2012-10-02 03:33:00,77.1,74.3,29.80,SW,218,7.0,8.0,91,0.00,,---,0.00,0.00,VWS V14.01,2012-10-02 07:33:00,
2012-10-02 03:38:00,77.1,74.3,29.80,WSW,246,5.0,8.0,91,0.00,,---,0.00,0.00,VWS V14.01,2012-10-02 07:38:00,
2012-10-02 03:43:00,77.1,74.3,29.80,SSW,212,5.0,8.0,91,0.00,,---,0.00,0.00,VWS V14.01,2012-10-02 07:43:00,
2012-10-02 03:48:00,77.1,74.3,29.80,South,187,4.0,8.0,91,0.00,,---,0.00,0.00,VWS V14.01,2012-10-02 07:48:00,
2012-10-02 03:53:00,77.1,74.3,29.80,SSW,194,5.0,8.0,91,0.00,,---,0.00,0.00,VWS V14.01,2012-10-02 07:53:00,
2012-10-02 03:58:00,77.1,74.3,29.81,South,189,2.0,8.0,91,0.00,,---,0.00,0.00,VWS V14.01,2012-10-02 07:58:00,
2012-10-02 04:00:00,77.1,73.9,29.80,SSW,198,7.0,10.0,90,0.00,,---,0.00,0.00,VWS V14.01,2012-10-02 08:00:00,
2012-10-02 04:03:00,77.0,74.2,29.81,SSW,198,3.0,9.0,91,0.00,,---,0.00,0.00,VWS V14.01,2012-10-02 08:03:00,
2012-10-02 04:08:00,76.9,74.1,29.81,West,260,1.0,9.0,91,0.00,,---,0.00,0.00,VWS V14.01,2012-10-02 08:08:00,
2012-10-02 04:13:00,76.8,74.0,29.81,South,190,4.0,7.0,91,0.00,,---,0.00,0.00,VWS V14.01,2012-10-02 08:13:00,
2012-10-02 04:18:00,76.8,73.7,29.81,SSW,198,3.0,7.0,90,0.00,,---,0.00,0.00,VWS V14.01,2012-10-02 08:18:00,
2012-10-02 04:23:00,76.8,73.7,29.81,SSW,208,6.0,7.0,90,0.00,,---,0.00,0.00,VWS V14.01,2012-10-02 08:23:00,
2012-10-02 04:28:00,76.8,73.7,29.81,South,171,3.0,7.0,90,0.00,,---,0.00,0.00,VWS V14.01,2012-10-02 08:28:00,
2012-10-02 04:33:00,76.7,73.6,29.81,South,185,2.0,7.0,90,0.00,,---,0.00,0.00,VWS V14.01,2012-10-02 08:33:00,
2012-10-02 04:38:00,76.7,73.9,29.81,South,186,6.0,7.0,91,0.00,,---,0.00,0.00,VWS V14.01,2012-10-02 08:38:00,
2012-10-02 04:43:00,76.7,73.9,29.81,SSE,166,3.0,7.0,91,0.00,,---,0.00,0.00,VWS V14.01,2012-10-02 08:43:00,
2012-10-02 04:48:00,76.6,73.8,29.81,SW,214,5.0,9.0,91,0.00,,---,0.00,0.00,VWS V14.01,2012-10-02 08:48:00,
2012-10-02 04:53:00,76.6,73.8,29.81,South,189,2.0,9.0,91,0.00,,---,0.00,0.00,VWS V14.01,2012-10-02 08:53:00,
2012-10-02 04:58:00,76.6,73.8,29.81,South,186,2.0,9.0,91,0.00,,---,0.00,0.00,VWS V14.01,2012-10-02 08:58:00,
2012-10-02 05:00:00,76.9,74.1,29.81,South,186,3.0,9.0,91,0.00,,---,0.00,0.00,VWS V14.01,2012-10-02 09:00:00,
2012-10-02 05:03:00,76.6,74.1,29.81,South,189,3.0,9.0,92,0.00,,---,0.00,0.00,VWS V14.01,2012-10-02 09:03:00,
2012-10-02 05:08:00,76.6,74.1,29.81,South,183,6.0,9.0,92,0.00,,---,0.00,0.00,VWS V14.01,2012-10-02 09:08:00,
2012-10-02 05:13:00,76.6,74.1,29.81,South,181,4.0,6.0,92,0.00,,---,0.00,0.00,VWS V14.01,2012-10-02 09:13:00,
2012-10-02 05:18:00,76.7,74.2,29.82,South,187,3.0,6.0,92,0.00,,---,0.00,0.00,VWS V14.01,2012-10-02 09:18:00,
2012-10-02 05:23:00,76.7,74.2,29.82,SE,144,5.0,7.0,92,0.00,,---,0.00,0.00,VWS V14.01,2012-10-02 09:23:00,
2012-10-02 05:28:00,76.7,74.2,29.82,SW,225,2.0,7.0,92,0.00,,---,0.00,0.00,VWS V14.01,2012-10-02 09:28:00,
2012-10-02 05:33:00,76.9,74.4,29.82,SW,225,3.0,7.0,92,0.00,,---,0.00,0.00,VWS V14.01,2012-10-02 09:33:00,
2012-10-02 05:38:00,77.0,74.8,29.82,South,174,3.0,7.0,93,0.00,,---,0.00,0.00,VWS V14.01,2012-10-02 09:38:00,
2012-10-02 05:43:00,76.9,74.7,29.82,South,190,5.0,9.0,93,0.00,,---,0.00,0.00,VWS V14.01,2012-10-02 09:43:00,
2012-10-02 05:48:00,76.9,74.7,29.82,South,176,3.0,9.0,93,0.00,,---,0.00,0.00,VWS V14.01,2012-10-02 09:48:00,
2012-10-02 05:53:00,76.8,74.9,29.82,South,185,2.0,9.0,94,0.00,,---,0.00,0.00,VWS V14.01,2012-10-02 09:53:00,
2012-10-02 05:58:00,76.7,74.8,29.82,South,187,2.0,9.0,94,0.00,,---,0.00,0.00,VWS V14.01,2012-10-02 09:58:00,
2012-10-02 06:00:00,76.6,74.1,29.81,SSW,203,3.0,9.0,92,0.00,,---,0.00,0.00,VWS V14.01,2012-10-02 10:00:00,
2012-10-02 06:03:00,76.7,74.8,29.82,SSW,193,1.0,9.0,94,0.00,,---,0.00,0.00,VWS V14.01,2012-10-02 10:03:00,
2012-10-02 06:08:00,76.6,75.1,29.82,SSW,212,3.0,9.0,95,0.00,,---,0.00,0.00,VWS V14.01,2012-10-02 10:08:00,
2012-10-02 06:13:00,76.6,75.1,29.82,SSE,163,2.0,6.0,95,0.00,,---,0.00,0.00,VWS V14.01,2012-10-02 10:13:00,
2012-10-02 06:18:00,76.5,75.0,29.83,SE,145,2.0,6.0,95,0.00,,---,0.00,0.00,VWS V14.01,2012-10-02 10:18:00,
2012-10-02 06:23:00,76.5,75.0,29.83,South,185,2.0,6.0,95,0.00,,---,0.00,0.00,VWS V14.01,2012-10-02 10:23:00,
2012-10-02 06:28:00,76.5,75.3,29.83,South,189,2.0,7.0,96,0.00,,---,0.00,0.00,VWS V14.01,2012-10-02 10:28:00,
2012-10-02 06:33:00,76.5,75.3,29.83,South,183,1.0,7.0,96,0.00,,---,0.00,0.00,VWS V14.01,2012-10-02 10:33:00,
2012-10-02 06:38:00,76.5,75.3,29.83,South,185,4.0,7.0,96,0.00,,---,0.00,0.00,VWS V14.01,2012-10-02 10:38:00,
2012-10-02 06:43:00,76.5,75.3,29.83,South,191,2.0,7.0,96,0.00,,---,0.00,0.00,VWS V14.01,2012-10-02 10:43:00,
2012-10-02 06:48:00,76.4,75.2,29.83,SSE,166,4.0,7.0,96,0.00,,---,0.00,0.00,VWS V14.01,2012-10-02 10:48:00,
2012-10-02 06:53:00,76.4,75.2,29.83,SSW,198,3.0,7.0,96,0.00,,---,0.00,0.00,VWS V14.01,2012-10-02 10:53:00,
2012-10-02 06:58:00,76.4,75.2,29.83,South,184,3.0,7.0,96,0.00,,---,0.00,0.00,VWS V14.01,2012-10-02 10:58:00,
2012-10-02 07:00:00,76.6,75.1,29.82,SSW,212,3.0,9.0,95,0.00,,---,0.00,0.00,VWS V14.01,2012-10-02 11:00:00,
2012-10-02 07:03:00,76.3,75.1,29.84,South,189,3.0,7.0,96,0.00,,---,0.00,0.00,VWS V14.01,2012-10-02 11:03:00,
2012-10-02 07:08:00,76.3,75.1,29.84,SSW,198,3.0,4.0,96,0.00,,---,0.00,0.00,VWS V14.01,2012-10-02 11:08:00,
2012-10-02 07:13:00,76.2,75.0,29.85,SSE,154,4.0,4.0,96,0.00,,---,0.00,0.00,VWS V14.01,2012-10-02 11:13:00,
2012-10-02 07:18:00,76.2,75.0,29.85,South,185,2.0,5.0,96,0.00,,---,0.00,0.00,VWS V14.01,2012-10-02 11:18:00,
2012-10-02 07:24:00,76.2,75.0,29.85,South,183,2.0,6.0,96,0.00,,---,0.00,0.00,VWS V14.01,2012-10-02 11:24:00,
2012-10-02 07:29:00,76.2,75.0,29.85,South,172,3.0,6.0,96,0.00,,---,0.00,5.00,VWS V14.01,2012-10-02 11:29:00,
2012-10-02 07:34:00,76.2,75.0,29.85,South,181,3.0,6.0,96,0.00,,---,0.00,7.00,VWS V14.01,2012-10-02 11:34:00,
2012-10-02 07:39:00,76.2,75.0,29.85,South,181,5.0,6.0,96,0.00,,---,0.00,9.00,VWS V14.01,2012-10-02 11:39:00,
2012-10-02 07:44:00,76.2,75.0,29.85,SSW,208,5.0,7.0,96,0.00,,---,0.00,16.00,VWS V14.01,2012-10-02 11:44:00,
2012-10-02 07:49:00,76.4,75.2,29.85,South,186,3.0,7.0,96,0.00,,---,0.00,25.00,VWS V14.01,2012-10-02 11:49:00,
2012-10-02 07:54:00,76.4,75.2,29.85,SSW,208,1.0,7.0,96,0.00,,---,0.00,25.00,VWS V14.01,2012-10-02 11:54:00,
2012-10-02 07:59:00,76.5,75.3,29.86,SW,227,4.0,7.0,96,0.00,,---,0.00,16.00,VWS V14.01,2012-10-02 11:59:00,
2012-10-02 08:00:00,76.3,75.1,29.84,South,178,3.0,7.0,96,0.00,,---,0.00,0.00,VWS V14.01,2012-10-02 12:00:00,
2012-10-02 08:04:00,76.5,75.3,29.86,SSW,203,5.0,9.0,96,0.00,,---,0.00,33.00,VWS V14.01,2012-10-02 12:04:00,
2012-10-02 08:09:00,76.6,75.4,29.86,SSE,147,4.0,6.0,96,0.00,,---,0.00,28.00,VWS V14.01,2012-10-02 12:09:00,
2012-10-02 08:14:00,76.6,75.4,29.86,SSW,193,2.0,7.0,96,0.00,,---,0.00,28.00,VWS V14.01,2012-10-02 12:14:00,
2012-10-02 08:19:00,76.6,75.4,29.86,SSW,198,2.0,9.0,96,0.00,,---,0.00,30.00,VWS V14.01,2012-10-02 12:19:00,
2012-10-02 08:24:00,76.7,75.5,29.86,South,177,2.0,9.0,96,0.00,,---,0.00,67.00,VWS V14.01,2012-10-02 12:24:00,
2012-10-02 08:29:00,76.9,75.7,29.86,SSW,213,6.0,9.0,96,0.00,,---,0.00,69.00,VWS V14.01,2012-10-02 12:29:00,
2012-10-02 08:34:00,77.0,75.8,29.86,SSW,213,1.0,9.0,96,0.00,,---,0.00,91.00,VWS V14.01,2012-10-02 12:34:00,
2012-10-02 08:39:00,77.5,76.3,29.87,SSW,198,2.0,9.0,96,0.00,,---,0.00,95.00,VWS V14.01,2012-10-02 12:39:00,
2012-10-02 08:44:00,77.8,76.3,29.88,SSW,203,4.0,9.0,95,0.00,,---,0.00,105.00,VWS V14.01,2012-10-02 12:44:00,
2012-10-02 08:49:00,78.2,76.3,29.88,SSW,208,4.0,9.0,94,0.00,,---,0.00,127.00,VWS V14.01,2012-10-02 12:49:00,
2012-10-02 08:54:00,78.4,76.5,29.88,SSE,166,5.0,9.0,94,0.00,,---,0.00,162.00,VWS V14.01,2012-10-02 12:54:00,
2012-10-02 08:59:00,78.8,76.6,29.88,SSW,208,2.0,9.0,93,0.00,,---,0.00,218.00,VWS V14.01,2012-10-02 12:59:00,
2012-10-02 09:00:00,76.6,75.4,29.86,South,185,3.0,9.0,96,0.00,,---,0.00,25.00,VWS V14.01,2012-10-02 13:00:00,
2012-10-02 09:04:00,79.5,77.0,29.88,SSE,156,2.0,9.0,92,0.00,,---,0.00,227.00,VWS V14.01,2012-10-02 13:04:00,
2012-10-02 09:09:00,80.3,77.8,29.88,South,179,0.0,2.0,92,0.00,,---,0.00,174.00,VWS V14.01,2012-10-02 13:09:00,
2012-10-02 09:14:00,81.0,77.8,29.88,SSW,194,1.0,6.0,90,0.00,,---,0.00,165.00,VWS V14.01,2012-10-02 13:14:00,
2012-10-02 09:19:00,81.3,77.8,29.89,SW,222,3.0,9.0,89,0.00,,---,0.00,195.00,VWS V14.01,2012-10-02 13:19:00,
2012-10-02 09:24:00,81.4,77.8,29.89,SW,220,5.0,9.0,89,0.00,,---,0.00,100.00,VWS V14.01,2012-10-02 13:24:00,
2012-10-02 09:29:00,81.7,77.8,29.89,South,189,4.0,9.0,88,0.00,,---,0.00,95.00,VWS V14.01,2012-10-02 13:29:00,
2012-10-02 09:34:00,81.9,78.0,29.89,SSW,198,10.0,10.0,88,0.00,,---,0.00,105.00,VWS V14.01,2012-10-02 13:34:00,
2012-10-02 09:39:00,82.1,77.5,29.89,SW,231,4.0,11.0,86,0.00,,---,0.00,155.00,VWS V14.01,2012-10-02 13:39:00,
2012-10-02 09:44:00,82.7,78.1,29.89,SSW,212,5.0,11.0,86,0.00,,---,0.00,155.00,VWS V14.01,2012-10-02 13:44:00,
2012-10-02 09:49:00,83.0,78.0,29.89,South,180,8.0,11.0,85,0.00,,---,0.00,186.00,VWS V14.01,2012-10-02 13:49:00,
2012-10-02 09:54:00,83.0,78.0,29.89,WSW,243,6.0,12.0,85,0.00,,---,0.00,334.00,VWS V14.01,2012-10-02 13:54:00,
2012-10-02 09:59:00,83.7,78.3,29.89,South,179,10.0,15.0,84,0.00,,---,0.00,311.00,VWS V14.01,2012-10-02 13:59:00,
2012-10-02 10:00:00,80.1,77.6,29.88,SSW,198,1.0,9.0,92,0.00,,---,0.00,174.00,VWS V14.01,2012-10-02 14:00:00,
2012-10-02 10:04:00,83.6,78.3,29.90,WSW,245,5.0,15.0,84,0.00,,---,0.00,295.00,VWS V14.01,2012-10-02 14:04:00,
2012-10-02 10:09:00,81.1,74.3,29.91,SW,233,2.0,10.0,80,0.00,,---,0.00,72.00,VWS V14.01,2012-10-02 14:09:00,
2012-10-02 10:14:00,77.7,73.5,29.91,WNW,282,5.0,13.0,87,0.00,,---,0.00,90.00,VWS V14.01,2012-10-02 14:14:00,
2012-10-02 10:19:00,75.8,72.7,29.91,SE,135,3.0,15.0,90,0.00,,---,0.00,58.00,VWS V14.01,2012-10-02 14:19:00,
2012-10-02 10:24:00,76.3,73.8,29.90,WSW,255,1.0,15.0,92,0.00,,---,0.00,51.00,VWS V14.01,2012-10-02 14:24:00,
2012-10-02 10:29:00,76.5,74.3,29.90,WSW,239,1.0,15.0,93,0.00,,---,0.00,104.00,VWS V14.01,2012-10-02 14:29:00,
2012-10-02 10:34:00,76.5,74.7,29.91,SSW,193,2.0,15.0,94,0.00,,---,0.00,79.00,VWS V14.01,2012-10-02 14:34:00,
2012-10-02 10:39:00,76.4,74.2,29.92,SW,222,3.0,15.0,93,0.00,,---,0.00,135.00,VWS V14.01,2012-10-02 14:39:00,
2012-10-02 10:44:00,76.4,74.6,29.92,West,276,2.0,15.0,94,0.00,,---,0.00,216.00,VWS V14.01,2012-10-02 14:44:00,
2012-10-02 10:49:00,76.8,74.6,29.92,WSW,245,5.0,15.0,93,0.00,,---,0.00,343.00,VWS V14.01,2012-10-02 14:49:00,
2012-10-02 10:54:00,76.9,74.7,29.92,South,189,0.0,15.0,93,0.00,,---,0.00,288.00,VWS V14.01,2012-10-02 14:54:00,
2012-10-02 10:59:00,77.1,75.2,29.92,SW,233,0.0,15.0,94,0.00,,---,0.00,181.00,VWS V14.01,2012-10-02 14:59:00,
2012-10-02 11:00:00,81.9,74.8,29.91,SSW,213,10.0,15.0,79,0.00,,---,0.00,295.00,VWS V14.01,2012-10-02 15:00:00,
2012-10-02 11:04:00,77.4,75.9,29.92,SW,222,1.0,15.0,95,0.00,,---,0.00,120.00,VWS V14.01,2012-10-02 15:04:00,
2012-10-02 11:09:00,77.7,76.2,29.92,WSW,237,0.0,2.0,95,0.00,,---,0.00,86.00,VWS V14.01,2012-10-02 15:09:00,
2012-10-02 11:15:00,77.8,76.3,29.92,West,277,0.0,5.0,95,0.00,,---,0.00,90.00,VWS V14.01,2012-10-02 15:15:00,
2012-10-02 11:20:00,77.9,76.4,29.92,West,277,2.0,5.0,95,0.00,,---,0.00,84.00,VWS V14.01,2012-10-02 15:20:00,
2012-10-02 11:25:00,78.0,76.5,29.92,West,264,2.0,5.0,95,0.00,,---,0.00,95.00,VWS V14.01,2012-10-02 15:25:00,
2012-10-02 11:30:00,78.1,76.2,29.92,West,268,0.0,5.0,94,0.00,,---,0.00,176.00,VWS V14.01,2012-10-02 15:30:00,
2012-10-02 11:35:00,78.7,77.2,29.93,WSW,254,2.0,5.0,95,0.00,,---,0.00,336.00,VWS V14.01,2012-10-02 15:35:00,
2012-10-02 11:40:00,79.1,76.9,29.93,SW,235,1.0,5.0,93,0.00,,---,0.00,267.00,VWS V14.01,2012-10-02 15:40:00,
2012-10-02 11:45:00,79.6,77.4,29.93,SSW,198,3.0,6.0,93,0.00,,---,0.00,272.00,VWS V14.01,2012-10-02 15:45:00,
2012-10-02 11:50:00,80.3,78.1,29.93,WSW,251,3.0,6.0,93,0.00,,---,0.00,559.00,VWS V14.01,2012-10-02 15:50:00,
2012-10-02 11:55:00,81.4,77.8,29.93,North,8,0.0,6.0,89,0.00,,---,0.00,311.00,VWS V14.01,2012-10-02 15:55:00,
2012-10-02 12:00:00,81.6,78.4,29.93,WSW,243,0.0,6.0,90,0.00,,---,0.00,452.00,VWS V14.01,2012-10-02 16:00:00,
2012-10-02 12:05:00,81.5,77.3,29.93,SW,214,5.0,8.0,87,0.00,,---,0.00,264.00,VWS V14.01,2012-10-02 16:05:00,
2012-10-02 12:10:00,81.5,76.9,29.93,WSW,245,3.0,8.0,86,0.00,,---,0.00,229.00,VWS V14.01,2012-10-02 16:10:00,
2012-10-02 12:15:00,81.5,77.6,29.93,WSW,251,0.0,8.0,88,0.00,,---,0.00,214.00,VWS V14.01,2012-10-02 16:15:00,
2012-10-02 12:20:00,81.3,77.1,29.92,WSW,247,4.0,8.0,87,0.00,,---,0.00,199.00,VWS V14.01,2012-10-02 16:20:00,
2012-10-02 12:25:00,81.5,76.9,29.92,SW,232,1.0,8.0,86,0.00,,---,0.00,132.00,VWS V14.01,2012-10-02 16:25:00,
2012-10-02 12:30:00,81.3,77.1,29.92,SW,222,1.0,8.0,87,0.00,,---,0.00,125.00,VWS V14.01,2012-10-02 16:30:00,
2012-10-02 12:35:00,81.3,76.7,29.92,West,266,2.0,8.0,86,0.00,,---,0.00,120.00,VWS V14.01,2012-10-02 16:35:00,
2012-10-02 12:40:00,81.1,76.2,29.92,West,262,2.0,8.0,85,0.00,,---,0.00,111.00,VWS V14.01,2012-10-02 16:40:00,
2012-10-02 12:45:00,81.2,76.3,29.93,WSW,238,2.0,8.0,85,0.00,,---,0.00,123.00,VWS V14.01,2012-10-02 16:45:00,
2012-10-02 12:50:00,81.3,76.4,29.92,SSW,203,4.0,8.0,85,0.00,,---,0.00,225.00,VWS V14.01,2012-10-02 16:50:00,
2012-10-02 12:55:00,81.7,76.8,29.92,SW,227,3.0,8.0,85,0.00,,---,0.00,255.00,VWS V14.01,2012-10-02 16:55:00,
2012-10-02 13:00:00,82.1,76.4,29.92,SSW,203,2.0,8.0,83,0.00,,---,0.00,362.00,VWS V14.01,2012-10-02 17:00:00,
2012-10-02 13:05:00,82.9,77.2,29.92,WSW,240,2.0,8.0,83,0.00,,---,0.00,677.00,VWS V14.01,2012-10-02 17:05:00,
2012-10-02 13:10:00,83.7,76.9,29.92,SSW,208,1.0,2.0,80,0.00,,---,0.00,373.00,VWS V14.01,2012-10-02 17:10:00,
2012-10-02 13:15:00,83.6,77.2,29.91,SW,228,4.0,6.0,81,0.00,,---,0.00,330.00,VWS V14.01,2012-10-02 17:15:00,
2012-10-02 13:20:00,83.4,76.6,29.91,WSW,240,1.0,6.0,80,0.00,,---,0.00,345.00,VWS V14.01,2012-10-02 17:20:00,
2012-10-02 13:25:00,83.8,77.0,29.91,SSW,208,5.0,6.0,80,0.00,,---,0.00,311.00,VWS V14.01,2012-10-02 17:25:00,
2012-10-02 13:30:00,83.9,76.3,29.91,WSW,245,5.0,6.0,78,0.00,,---,0.00,264.00,VWS V14.01,2012-10-02 17:30:00,
2012-10-02 13:35:00,83.6,76.0,29.91,WSW,237,1.0,6.0,78,0.00,,---,0.00,225.00,VWS V14.01,2012-10-02 17:35:00,
2012-10-02 13:40:00,83.6,76.4,29.91,WSW,253,3.0,6.0,79,0.00,,---,0.00,209.00,VWS V14.01,2012-10-02 17:40:00,
2012-10-02 13:45:00,83.6,76.8,29.91,WSW,250,4.0,6.0,80,0.00,,---,0.00,218.00,VWS V14.01,2012-10-02 17:45:00,
2012-10-02 13:50:00,83.6,76.0,29.91,SSW,208,5.0,7.0,78,0.00,,---,0.00,199.00,VWS V14.01,2012-10-02 17:50:00,
2012-10-02 13:55:00,83.2,76.0,29.91,SSW,198,3.0,7.0,79,0.00,,---,0.00,174.00,VWS V14.01,2012-10-02 17:55:00,
2012-10-02 14:00:00,83.1,76.3,29.91,WSW,239,2.0,7.0,80,0.00,,---,0.00,171.00,VWS V14.01,2012-10-02 18:00:00,
2012-10-02 14:05:00,83.1,76.7,29.91,SW,232,1.0,7.0,81,0.00,,---,0.00,141.00,VWS V14.01,2012-10-02 18:05:00,
2012-10-02 14:10:00,83.0,76.6,29.91,WSW,241,1.0,3.0,81,0.00,,---,0.00,148.00,VWS V14.01,2012-10-02 18:10:00,
2012-10-02 14:15:00,82.7,77.0,29.91,SW,223,1.0,5.0,83,0.00,,---,0.00,192.00,VWS V14.01,2012-10-02 18:15:00,
2012-10-02 14:20:00,82.1,77.2,29.90,WSW,254,3.0,5.0,85,0.00,,---,0.00,316.00,VWS V14.01,2012-10-02 18:20:00,
2012-10-02 14:25:00,81.8,77.6,29.90,SW,235,2.0,8.0,87,0.00,,---,0.00,383.00,VWS V14.01,2012-10-02 18:25:00,
2012-10-02 14:30:00,81.8,77.6,29.90,South,181,4.0,8.0,87,0.00,,---,0.00,468.00,VWS V14.01,2012-10-02 18:30:00,
2012-10-02 14:35:00,82.7,78.4,29.90,WSW,238,4.0,8.0,87,0.00,,---,0.00,483.00,VWS V14.01,2012-10-02 18:35:00,
2012-10-02 14:40:00,83.2,77.9,29.89,SW,231,5.0,8.0,84,0.00,,---,0.00,418.00,VWS V14.01,2012-10-02 18:40:00,
2012-10-02 14:45:00,83.0,77.7,29.89,WSW,241,3.0,8.0,84,0.00,,---,0.00,213.00,VWS V14.01,2012-10-02 18:45:00,
2012-10-02 14:50:00,83.0,77.7,29.89,South,189,2.0,8.0,84,0.00,,---,0.00,621.00,VWS V14.01,2012-10-02 18:50:00,
2012-10-02 14:55:00,83.7,77.2,29.89,SSW,213,6.0,8.0,81,0.00,,---,0.00,504.00,VWS V14.01,2012-10-02 18:55:00,
2012-10-02 15:00:00,84.1,77.6,29.89,SW,222,3.0,8.0,81,0.00,,---,0.00,454.00,VWS V14.01,2012-10-02 19:00:00,
2012-10-02 15:05:00,84.5,77.3,29.89,SSW,212,0.0,8.0,79,0.00,,---,0.00,564.00,VWS V14.01,2012-10-02 19:05:00,
2012-10-02 15:10:00,85.1,77.1,29.89,SW,226,2.0,6.0,77,0.00,,---,0.00,429.00,VWS V14.01,2012-10-02 19:10:00,
2012-10-02 15:15:00,84.8,76.0,29.89,WSW,247,4.0,8.0,75,0.00,,---,0.00,257.00,VWS V14.01,2012-10-02 19:15:00,
2012-10-02 15:20:00,84.4,76.4,29.89,WSW,241,7.0,8.0,77,0.00,,---,0.00,278.00,VWS V14.01,2012-10-02 19:20:00,
2012-10-02 15:25:00,84.1,75.7,29.89,WSW,239,0.0,9.0,76,0.00,,---,0.00,262.00,VWS V14.01,2012-10-02 19:25:00,
2012-10-02 15:30:00,84.1,76.1,29.89,WSW,248,0.0,9.0,77,0.00,,---,0.00,241.00,VWS V14.01,2012-10-02 19:30:00,
2012-10-02 15:35:00,84.2,76.2,29.89,SW,225,4.0,9.0,77,0.00,,---,0.00,283.00,VWS V14.01,2012-10-02 19:35:00,
2012-10-02 15:41:00,84.1,76.1,29.89,WSW,243,3.0,9.0,77,0.00,,---,0.00,302.00,VWS V14.01,2012-10-02 19:41:00,
2012-10-02 15:46:00,84.5,76.5,29.89,SW,227,4.0,9.0,77,0.00,,---,0.00,325.00,VWS V14.01,2012-10-02 19:46:00,
2012-10-02 15:51:00,84.6,76.2,29.89,SW,226,5.0,9.0,76,0.00,,---,0.00,339.00,VWS V14.01,2012-10-02 19:51:00,
2012-10-02 15:56:00,84.6,75.8,29.89,WNW,287,2.0,9.0,75,0.00,,---,0.00,243.00,VWS V14.01,2012-10-02 19:56:00,
2012-10-02 16:00:00,84.9,78.0,29.89,SW,233,4.0,8.0,80,0.00,,---,0.00,468.00,VWS V14.01,2012-10-02 20:00:00,
2012-10-02 16:01:00,84.4,76.0,29.89,WSW,242,4.0,9.0,76,0.00,,---,0.00,262.00,VWS V14.01,2012-10-02 20:01:00,
2012-10-02 16:06:00,84.4,75.2,29.89,WSW,249,2.0,9.0,74,0.00,,---,0.00,244.00,VWS V14.01,2012-10-02 20:06:00,
2012-10-02 16:11:00,84.3,75.5,29.89,WSW,243,1.0,3.0,75,0.00,,---,0.00,237.00,VWS V14.01,2012-10-02 20:11:00,
2012-10-02 16:16:00,84.0,74.8,29.89,WNW,296,2.0,3.0,74,0.00,,---,0.00,285.00,VWS V14.01,2012-10-02 20:16:00,
2012-10-02 16:21:00,84.3,75.1,29.89,WSW,241,3.0,6.0,74,0.00,,---,0.00,318.00,VWS V14.01,2012-10-02 20:21:00,
2012-10-02 16:26:00,85.0,75.8,29.89,WSW,244,1.0,7.0,74,0.00,,---,0.00,329.00,VWS V14.01,2012-10-02 20:26:00,
2012-10-02 16:31:00,84.9,75.3,29.88,WSW,241,0.0,7.0,73,0.00,,---,0.00,223.00,VWS V14.01,2012-10-02 20:31:00,
2012-10-02 16:36:00,84.5,74.5,29.89,West,268,0.0,7.0,72,0.00,,---,0.00,213.00,VWS V14.01,2012-10-02 20:36:00,
2012-10-02 16:41:00,84.3,75.5,29.89,SW,235,2.0,7.0,75,0.00,,---,0.00,207.00,VWS V14.01,2012-10-02 20:41:00,
2012-10-02 16:46:00,84.3,74.3,29.89,WSW,253,0.0,7.0,72,0.00,,---,0.00,181.00,VWS V14.01,2012-10-02 20:46:00,
2012-10-02 16:51:00,84.2,74.6,29.89,West,279,0.0,7.0,73,0.00,,---,0.00,220.00,VWS V14.01,2012-10-02 20:51:00,
2012-10-02 16:56:00,84.1,74.9,29.89,SSE,154,0.0,7.0,74,0.00,,---,0.00,216.00,VWS V14.01,2012-10-02 20:56:00,
2012-10-02 17:00:00,84.4,75.6,29.89,WSW,253,1.0,9.0,75,0.00,,---,0.00,237.00,VWS V14.01,2012-10-02 21:00:00,
2012-10-02 17:01:00,84.1,74.5,29.90,SW,233,0.0,7.0,73,0.00,,---,0.00,214.00,VWS V14.01,2012-10-02 21:01:00,
2012-10-02 17:06:00,84.2,73.8,29.90,WNW,291,0.0,7.0,71,0.00,,---,0.00,153.00,VWS V14.01,2012-10-02 21:06:00,
2012-10-02 17:11:00,84.0,74.0,29.90,WNW,287,0.0,2.0,72,0.00,,---,0.00,155.00,VWS V14.01,2012-10-02 21:11:00,
2012-10-02 17:16:00,83.8,74.2,29.90,WNW,287,1.0,2.0,73,0.00,,---,0.00,127.00,VWS V14.01,2012-10-02 21:16:00,
2012-10-02 17:21:00,83.7,74.5,29.90,West,270,1.0,4.0,74,0.00,,---,0.00,104.00,VWS V14.01,2012-10-02 21:21:00,
2012-10-02 17:26:00,83.7,74.1,29.90,SW,229,0.0,4.0,73,0.00,,---,0.00,107.00,VWS V14.01,2012-10-02 21:26:00,
2012-10-02 17:31:00,83.7,74.9,29.90,SW,226,3.0,4.0,75,0.00,,---,0.00,120.00,VWS V14.01,2012-10-02 21:31:00,
2012-10-02 17:36:00,83.8,75.0,29.90,SW,235,0.0,4.0,75,0.00,,---,0.00,151.00,VWS V14.01,2012-10-02 21:36:00,
2012-10-02 17:41:00,83.5,75.1,29.90,North,352,2.0,4.0,76,0.00,,---,0.00,137.00,VWS V14.01,2012-10-02 21:41:00,
2012-10-02 17:46:00,83.2,76.0,29.90,NNW,328,1.0,4.0,79,0.00,,---,0.00,130.00,VWS V14.01,2012-10-02 21:46:00,
2012-10-02 17:51:00,82.8,76.0,29.90,North,351,0.0,4.0,80,0.00,,---,0.00,109.00,VWS V14.01,2012-10-02 21:51:00,
2012-10-02 17:56:00,82.7,75.9,29.90,NNW,335,1.0,4.0,80,0.00,,---,0.00,88.00,VWS V14.01,2012-10-02 21:56:00,
2012-10-02 18:00:00,84.2,73.4,29.90,WNW,300,0.0,7.0,70,0.00,,---,0.00,137.00,VWS V14.01,2012-10-02 22:00:00,
2012-10-02 18:01:00,82.4,76.4,29.90,NNW,332,1.0,4.0,82,0.00,,---,0.00,70.00,VWS V14.01,2012-10-02 22:01:00,
2012-10-02 18:06:00,82.2,76.2,29.90,NNW,333,2.0,4.0,82,0.00,,---,0.00,49.00,VWS V14.01,2012-10-02 22:06:00,
2012-10-02 18:11:00,82.0,76.0,29.90,NNW,333,0.0,1.0,82,0.00,,---,0.00,42.00,VWS V14.01,2012-10-02 22:11:00,
2012-10-02 18:16:00,81.8,75.8,29.90,NW,320,0.0,2.0,82,0.00,,---,0.00,39.00,VWS V14.01,2012-10-02 22:16:00,
2012-10-02 18:21:00,81.5,75.1,29.90,North,349,0.0,2.0,81,0.00,,---,0.00,30.00,VWS V14.01,2012-10-02 22:21:00,
2012-10-02 18:26:00,81.3,74.9,29.91,North,349,0.0,2.0,81,0.00,,---,0.00,23.00,VWS V14.01,2012-10-02 22:26:00,
2012-10-02 18:31:00,81.0,75.0,29.91,NNW,338,1.0,3.0,82,0.00,,---,0.00,21.00,VWS V14.01,2012-10-02 22:31:00,
2012-10-02 18:36:00,81.0,75.0,29.91,NNW,344,0.0,3.0,82,0.00,,---,0.00,21.00,VWS V14.01,2012-10-02 22:36:00,
2012-10-02 18:41:00,81.0,74.6,29.92,NNW,344,0.0,3.0,81,0.00,,---,0.00,23.00,VWS V14.01,2012-10-02 22:41:00,
2012-10-02 18:46:00,80.9,74.5,29.92,NNW,344,0.0,3.0,81,0.00,,---,0.00,21.00,VWS V14.01,2012-10-02 22:46:00,
2012-10-02 18:51:00,81.0,74.6,29.92,NW,311,0.0,3.0,81,0.00,,---,0.00,14.00,VWS V14.01,2012-10-02 22:51:00,
2012-10-02 18:56:00,81.0,74.6,29.93,NW,324,1.0,3.0,81,0.00,,---,0.00,9.00,VWS V14.01,2012-10-02 22:56:00,
2012-10-02 19:00:00,82.1,75.7,29.90,NNW,333,0.0,4.0,81,0.00,,---,0.00,46.00,VWS V14.01,2012-10-02 23:00:00,
2012-10-02 19:01:00,81.0,75.0,29.93,NNE,20,0.0,3.0,82,0.00,,---,0.00,5.00,VWS V14.01,2012-10-02 23:01:00,
2012-10-02 19:06:00,80.8,74.8,29.93,NNW,333,1.0,3.0,82,0.00,,---,0.00,0.00,VWS V14.01,2012-10-02 23:06:00,
2012-10-02 19:12:00,80.6,74.6,29.93,NNW,333,1.0,1.0,82,0.00,,---,0.00,0.00,VWS V14.01,2012-10-02 23:12:00,
2012-10-02 19:17:00,80.6,74.6,29.94,NNW,331,1.0,3.0,82,0.00,,---,0.00,0.00,VWS V14.01,2012-10-02 23:17:00,
2012-10-02 19:22:00,80.5,74.5,29.94,NNW,336,0.0,3.0,82,0.00,,---,0.00,0.00,VWS V14.01,2012-10-02 23:22:00,
2012-10-02 19:27:00,80.4,74.4,29.94,NNW,341,0.0,3.0,82,0.00,,---,0.00,0.00,VWS V14.01,2012-10-02 23:27:00,
2012-10-02 19:32:00,80.3,74.3,29.94,NW,322,0.0,3.0,82,0.00,,---,0.00,0.00,VWS V14.01,2012-10-02 23:32:00,
2012-10-02 19:37:00,80.3,74.3,29.94,NW,323,0.0,3.0,82,0.00,,---,0.00,0.00,VWS V14.01,2012-10-02 23:37:00,
2012-10-02 19:42:00,80.3,74.3,29.94,WNW,297,0.0,3.0,82,0.00,,---,0.00,0.00,VWS V14.01,2012-10-02 23:42:00,
2012-10-02 19:47:00,80.1,74.5,29.95,NW,304,0.0,3.0,83,0.00,,---,0.00,0.00,VWS V14.01,2012-10-02 23:47:00,
2012-10-02 19:52:00,79.8,74.5,29.95,NNW,333,0.0,3.0,84,0.00,,---,0.00,0.00,VWS V14.01,2012-10-02 23:52:00,
2012-10-02 19:57:00,79.4,74.5,29.95,NNW,333,0.0,3.0,85,0.00,,---,0.00,0.00,VWS V14.01,2012-10-02 23:57:00,
2012-10-02 20:00:00,80.7,74.7,29.93,NNW,333,1.0,3.0,82,0.00,,---,0.00,0.00,VWS V14.01,2012-10-03 00:00:00,
2012-10-02 20:02:00,79.4,74.5,29.95,NNW,333,0.0,3.0,85,0.00,,---,0.00,0.00,VWS V14.01,2012-10-03 00:02:00,
2012-10-02 20:07:00,79.3,74.4,29.95,North,353,0.0,3.0,85,0.00,,---,0.00,0.00,VWS V14.01,2012-10-03 00:07:00,
2012-10-02 20:12:00,79.1,74.2,29.95,North,353,0.0,0.0,85,0.00,,---,0.00,0.00,VWS V14.01,2012-10-03 00:12:00,
2012-10-02 20:17:00,79.2,73.9,29.95,North,353,0.0,0.0,84,0.00,,---,0.00,0.00,VWS V14.01,2012-10-03 00:17:00,
2012-10-02 20:22:00,79.2,74.3,29.95,North,353,0.0,0.0,85,0.00,,---,0.00,0.00,VWS V14.01,2012-10-03 00:22:00,
2012-10-02 20:27:00,78.9,74.4,29.95,North,351,0.0,1.0,86,0.00,,---,0.00,0.00,VWS V14.01,2012-10-03 00:27:00,
2012-10-02 20:32:00,78.8,74.3,29.95,North,351,0.0,1.0,86,0.00,,---,0.00,0.00,VWS V14.01,2012-10-03 00:32:00,
2012-10-02 20:37:00,79.0,74.1,29.96,North,351,0.0,1.0,85,0.00,,---,0.00,0.00,VWS V14.01,2012-10-03 00:37:00,
2012-10-02 20:42:00,79.0,74.1,29.96,North,351,0.0,1.0,85,0.00,,---,0.00,0.00,VWS V14.01,2012-10-03 00:42:00,
2012-10-02 20:47:00,78.8,74.3,29.96,North,351,0.0,1.0,86,0.00,,---,0.00,0.00,VWS V14.01,2012-10-03 00:47:00,
2012-10-02 20:52:00,78.5,74.0,29.96,North,351,0.0,1.0,86,0.00,,---,0.00,0.00,VWS V14.01,2012-10-03 00:52:00,
2012-10-02 20:57:00,78.3,74.1,29.97,North,351,0.0,1.0,87,0.00,,---,0.00,0.00,VWS V14.01,2012-10-03 00:57:00,
2012-10-02 21:00:00,79.2,74.3,29.95,North,353,0.0,3.0,85,0.00,,---,0.00,0.00,VWS V14.01,2012-10-03 01:00:00,
2012-10-02 21:02:00,78.3,74.1,29.97,North,351,0.0,1.0,87,0.00,,---,0.00,0.00,VWS V14.01,2012-10-03 01:02:00,
2012-10-02 21:07:00,78.3,74.1,29.98,North,351,0.0,1.0,87,0.00,,---,0.00,0.00,VWS V14.01,2012-10-03 01:07:00,
2012-10-02 21:12:00,78.2,74.0,29.98,North,351,0.0,0.0,87,0.00,,---,0.00,0.00,VWS V14.01,2012-10-03 01:12:00,
2012-10-02 21:17:00,78.2,74.0,29.98,North,351,0.0,1.0,87,0.00,,---,0.00,0.00,VWS V14.01,2012-10-03 01:17:00,
2012-10-02 21:22:00,78.2,74.0,29.99,NE,35,1.0,1.0,87,0.00,,---,0.00,0.00,VWS V14.01,2012-10-03 01:22:00,
2012-10-02 21:27:00,78.5,74.3,29.99,East,81,0.0,1.0,87,0.00,,---,0.00,0.00,VWS V14.01,2012-10-03 01:27:00,
2012-10-02 21:32:00,78.7,74.5,30.00,South,176,0.0,2.0,87,0.00,,---,0.00,0.00,VWS V14.01,2012-10-03 01:32:00,
2012-10-02 21:37:00,78.9,74.7,30.00,SSW,193,2.0,5.0,87,0.00,,---,0.00,0.00,VWS V14.01,2012-10-03 01:37:00,
2012-10-02 21:42:00,78.8,74.9,30.00,SE,124,2.0,5.0,88,0.00,,---,0.00,0.00,VWS V14.01,2012-10-03 01:42:00,
2012-10-02 21:47:00,78.7,74.8,30.00,SE,131,0.0,5.0,88,0.00,,---,0.00,0.00,VWS V14.01,2012-10-03 01:47:00,
2012-10-02 21:52:00,78.5,75.0,30.00,South,170,2.0,6.0,89,0.00,,---,0.00,0.00,VWS V14.01,2012-10-03 01:52:00,
2012-10-02 21:57:00,78.3,74.8,30.00,ESE,111,0.0,6.0,89,0.00,,---,0.00,0.00,VWS V14.01,2012-10-03 01:57:00,
2012-10-02 22:00:00,78.3,74.1,29.98,North,351,0.0,1.0,87,0.00,,---,0.00,0.00,VWS V14.01,2012-10-03 02:00:00,
2012-10-02 22:02:00,78.1,74.9,30.01,SE,130,1.0,6.0,90,0.00,,---,0.00,0.00,VWS V14.01,2012-10-03 02:02:00,
2012-10-02 22:07:00,77.9,74.7,30.01,ESE,105,5.0,6.0,90,0.00,,---,0.00,0.00,VWS V14.01,2012-10-03 02:07:00,
2012-10-02 22:12:00,77.6,74.4,30.01,South,182,0.0,5.0,90,0.00,,---,0.00,0.00,VWS V14.01,2012-10-03 02:12:00,
2012-10-02 22:17:00,77.4,74.6,30.01,SSE,155,0.0,5.0,91,0.00,,---,0.00,0.00,VWS V14.01,2012-10-03 02:17:00,
2012-10-02 22:22:00,77.2,74.4,30.02,SE,128,4.0,5.0,91,0.00,,---,0.00,0.00,VWS V14.01,2012-10-03 02:22:00,
2012-10-02 22:27:00,77.1,74.3,30.02,SE,135,3.0,8.0,91,0.00,,---,0.00,0.00,VWS V14.01,2012-10-03 02:27:00,
2012-10-02 22:32:00,76.9,74.1,30.02,SSW,198,2.0,8.0,91,0.00,,---,0.00,0.00,VWS V14.01,2012-10-03 02:32:00,
2012-10-02 22:37:00,76.9,74.1,30.02,South,180,1.0,8.0,91,0.00,,---,0.00,0.00,VWS V14.01,2012-10-03 02:37:00,
2012-10-02 22:42:00,76.8,74.0,30.02,ESE,116,1.0,8.0,91,0.00,,---,0.00,0.00,VWS V14.01,2012-10-03 02:42:00,
2012-10-02 22:47:00,76.7,73.9,30.03,South,177,2.0,8.0,91,0.00,,---,0.00,0.00,VWS V14.01,2012-10-03 02:47:00,
2012-10-02 22:53:00,76.6,73.8,30.03,SW,219,1.0,8.0,91,0.00,,---,0.00,0.00,VWS V14.01,2012-10-03 02:53:00,
2012-10-02 22:57:00,76.6,74.1,30.03,South,182,0.0,8.0,92,0.00,,---,0.00,0.00,VWS V14.01,2012-10-03 02:57:00,
2012-10-02 23:00:00,77.8,74.6,30.01,SE,137,2.0,6.0,90,0.00,,---,0.00,0.00,VWS V14.01,2012-10-03 03:00:00,
2012-10-02 23:03:00,76.6,74.1,30.03,SSE,147,1.0,8.0,92,0.00,,---,0.00,0.00,VWS V14.01,2012-10-03 03:03:00,
2012-10-02 23:08:00,76.5,74.0,30.03,SE,129,2.0,8.0,92,0.00,,---,0.00,0.00,VWS V14.01,2012-10-03 03:08:00,
2012-10-02 23:13:00,76.4,73.9,30.03,SSE,152,2.0,5.0,92,0.00,,---,0.00,0.00,VWS V14.01,2012-10-03 03:13:00,
2012-10-02 23:18:00,76.4,73.9,30.03,SSE,157,1.0,5.0,92,0.00,,---,0.00,0.00,VWS V14.01,2012-10-03 03:18:00,
2012-10-02 23:23:00,76.3,73.8,30.03,SSE,168,1.0,5.0,92,0.00,,---,0.00,0.00,VWS V14.01,2012-10-03 03:23:00,
2012-10-02 23:28:00,76.3,73.8,30.03,SE,144,1.0,5.0,92,0.00,,---,0.00,0.00,VWS V14.01,2012-10-03 03:28:00,
2012-10-02 23:33:00,76.2,73.7,30.03,SSE,156,0.0,5.0,92,0.00,,---,0.00,0.00,VWS V14.01,2012-10-03 03:33:00,
2012-10-02 23:38:00,76.1,73.6,30.03,SSE,166,4.0,5.0,92,0.00,,---,0.00,0.00,VWS V14.01,2012-10-03 03:38:00,
2012-10-02 23:43:00,76.0,73.5,30.03,South,176,2.0,5.0,92,0.00,,---,0.00,0.00,VWS V14.01,2012-10-03 03:43:00,
2012-10-02 23:48:00,76.0,73.8,30.03,SE,137,1.0,5.0,93,0.00,,---,0.00,0.00,VWS V14.01,2012-10-03 03:48:00,
2012-10-02 23:53:00,75.9,73.7,30.03,South,170,0.0,5.0,93,0.00,,---,0.00,0.00,VWS V14.01,2012-10-03 03:53:00,
2012-10-02 23:58:00,75.8,73.6,30.03,South,178,2.0,5.0,93,0.00,,---,0.00,0.00,VWS V14.01,2012-10-03 03:58:00,